Time;durP1;ratioP1;P1;durP2;ratioP2;P2;SDS_P1;SDS_P2;PMS_P1;PMS_P2;Temp;Humidity;BMP_temperature;BMP_pressure;BME280_temperature;BME280_humidity;BME280_pressure;Samples;Min_cycle;Max_cycle;Signal;HPM_P1;HPM_P2
2022/09/19 00:02:01;;;;;;;3.97;1.73;;;9.40;99.90;;;;;;5029672;28;20192;-63
2022/09/19 00:04:30;;;;;;;3.63;1.97;;;9.30;99.90;;;;;;5021983;28;20227;-63
2022/09/19 00:06:56;;;;;;;4.50;1.97;;;9.30;99.90;;;;;;5038733;28;20558;-63
2022/09/19 00:09:28;;;;;;;3.30;1.97;;;9.30;99.90;;;;;;5022838;28;20932;-62
2022/09/19 00:11:57;;;;;;;3.30;1.87;;;9.20;99.90;;;;;;5015557;28;20294;-63
2022/09/19 00:14:27;;;;;;;3.00;1.40;;;9.20;99.90;;;;;;5021727;28;20215;-63
2022/09/19 00:16:58;;;;;;;2.77;1.80;;;9.20;99.90;;;;;;5030850;28;20655;-63
2022/09/19 00:19:23;;;;;;;3.87;2.00;;;9.20;99.90;;;;;;5023091;28;20243;-63
2022/09/19 00:21:54;;;;;;;4.70;2.00;;;9.10;99.90;;;;;;5034339;28;20198;-62
2022/09/19 00:27:06;;;;;;;5.13;2.20;;;9.10;99.90;;;;;;5045830;28;20178;-63
2022/09/19 00:29:33;;;;;;;3.80;2.10;;;9.10;99.90;;;;;;5019969;28;20209;-63
2022/09/19 00:31:59;;;;;;;5.30;2.10;;;9.10;99.90;;;;;;5044680;28;20191;-63
2022/09/19 00:34:25;;;;;;;5.87;2.03;;;9.10;99.90;;;;;;5024082;28;20226;-63
2022/09/19 00:36:51;;;;;;;5.03;2.00;;;9.10;99.90;;;;;;5026195;28;20196;-62
2022/09/19 00:39:18;;;;;;;5.10;2.90;;;9.10;99.90;;;;;;5027845;28;20206;-64
2022/09/19 00:41:45;;;;;;;3.30;2.27;;;9.10;99.90;;;;;;5031697;28;20278;-62
2022/09/19 00:44:23;;;;;;;6.10;2.37;;;9.10;99.90;;;;;;5028896;28;20207;-62
2022/09/19 00:46:53;;;;;;;5.33;2.30;;;9.10;99.90;;;;;;5043922;28;20183;-63
2022/09/19 00:49:20;;;;;;;4.80;2.27;;;9.10;99.90;;;;;;5017305;28;20256;-64
2022/09/19 00:51:49;;;;;;;4.57;2.83;;;9.10;99.90;;;;;;5026762;28;20788;-62
2022/09/19 00:54:21;;;;;;;3.93;2.27;;;9.10;99.90;;;;;;5030437;28;20211;-62
2022/09/19 00:56:55;;;;;;;6.13;3.03;;;9.10;99.90;;;;;;5010716;28;20577;-62
2022/09/19 00:59:23;;;;;;;4.33;3.53;;;9.10;99.90;;;;;;5029571;28;20254;-62
2022/09/19 01:01:51;;;;;;;7.10;3.33;;;9.10;99.90;;;;;;5030755;28;20191;-62
2022/09/19 01:04:19;;;;;;;4.67;3.57;;;9.10;99.90;;;;;;5020368;28;20318;-62
2022/09/19 01:07:06;;;;;;;6.87;3.10;;;9.10;99.90;;;;;;5035458;28;20565;-62
2022/09/19 01:10:07;;;;;;;5.63;3.60;;;9.10;99.90;;;;;;5018756;28;20242;-62
2022/09/19 01:13:09;;;;;;;6.10;3.43;;;9.10;99.90;;;;;;5016573;28;20179;-62
2022/09/19 01:15:53;;;;;;;5.67;3.10;;;9.00;99.90;;;;;;5016890;28;20300;-62
2022/09/19 01:18:26;;;;;;;3.23;2.77;;;9.00;99.90;;;;;;5008921;28;20199;-62
2022/09/19 01:21:40;;;;;;;8.40;3.60;;;9.00;99.90;;;;;;5024755;28;20725;-62
2022/09/19 01:24:34;;;;;;;3.47;2.90;;;8.90;99.90;;;;;;5014809;28;20249;-62
2022/09/19 01:27:12;;;;;;;4.37;2.50;;;8.90;99.90;;;;;;5014787;28;20249;-62
2022/09/19 01:29:44;;;;;;;8.03;2.93;;;8.90;99.90;;;;;;5013998;28;20674;-63
2022/09/19 01:32:18;;;;;;;6.87;3.37;;;8.90;99.90;;;;;;5008915;28;20650;-62
2022/09/19 01:34:49;;;;;;;4.07;3.27;;;8.90;99.90;;;;;;5018267;28;20226;-62
2022/09/19 01:37:27;;;;;;;8.83;4.07;;;8.90;99.90;;;;;;5040371;28;20200;-62
2022/09/19 01:39:56;;;;;;;7.47;3.67;;;8.90;99.90;;;;;;5020685;28;20203;-62
2022/09/19 01:42:22;;;;;;;6.50;3.40;;;8.90;99.90;;;;;;5033880;28;20761;-62
2022/09/19 01:44:48;;;;;;;7.07;3.87;;;8.90;99.90;;;;;;5030157;28;20219;-63
2022/09/19 01:47:19;;;;;;;4.97;3.73;;;8.90;99.90;;;;;;5030326;28;20206;-63
2022/09/19 01:49:56;;;;;;;10.20;3.90;;;8.90;99.90;;;;;;5025369;28;20255;-62
2022/09/19 01:52:48;;;;;;;7.17;3.73;;;8.90;99.90;;;;;;5028250;28;20219;-63
2022/09/19 01:55:30;;;;;;;3.47;3.17;;;8.90;99.90;;;;;;5008655;28;20220;-62
2022/09/19 01:58:23;;;;;;;7.00;4.80;;;8.90;99.90;;;;;;5018918;28;20308;-62
2022/09/19 02:01:19;;;;;;;10.20;4.93;;;8.90;99.90;;;;;;5022008;28;20250;-62
2022/09/19 02:04:06;;;;;;;6.37;4.13;;;8.90;99.90;;;;;;5026635;28;20331;-62
2022/09/19 02:07:04;;;;;;;7.90;4.13;;;8.90;99.90;;;;;;5019453;28;21002;-62
2022/09/19 02:09:56;;;;;;;7.53;3.97;;;9.00;99.90;;;;;;5025396;28;20231;-62
2022/09/19 02:12:25;;;;;;;5.43;4.70;;;9.00;99.90;;;;;;5022182;28;20202;-62
2022/09/19 02:14:54;;;;;;;7.50;4.50;;;9.00;99.90;;;;;;5022041;28;20219;-62
2022/09/19 02:17:26;;;;;;;10.83;4.37;;;9.10;99.90;;;;;;5029406;28;20250;-62
2022/09/19 02:20:01;;;;;;;6.43;4.97;;;9.10;99.90;;;;;;5021172;28;20661;-62
2022/09/19 02:22:34;;;;;;;7.00;4.37;;;9.10;99.90;;;;;;5026205;28;20319;-63
2022/09/19 02:25:05;;;;;;;9.00;4.57;;;9.10;99.90;;;;;;5027091;28;20572;-67
2022/09/19 02:27:37;;;;;;;7.40;4.93;;;9.20;99.90;;;;;;5028038;28;20195;-62
2022/09/19 02:30:08;;;;;;;4.80;4.40;;;9.10;99.90;;;;;;5014774;28;20209;-63
2022/09/19 02:32:35;;;;;;;8.10;4.63;;;9.20;99.90;;;;;;5012868;28;20195;-62
2022/09/19 02:35:02;;;;;;;6.57;4.53;;;9.20;99.90;;;;;;5026295;28;21014;-63
2022/09/19 02:37:35;;;;;;;14.87;6.17;;;9.20;99.90;;;;;;5039789;28;20195;-62
2022/09/19 02:40:05;;;;;;;5.53;5.03;;;9.20;99.90;;;;;;5016187;28;20208;-62
2022/09/19 02:42:43;;;;;;;5.67;4.00;;;9.20;99.90;;;;;;5035282;28;20197;-63
2022/09/19 02:45:22;;;;;;;7.00;4.57;;;9.20;99.90;;;;;;5014009;28;20211;-62
2022/09/19 02:48:14;;;;;;;6.70;4.90;;;9.20;99.90;;;;;;5016273;28;20692;-62
2022/09/19 02:50:48;;;;;;;7.00;5.30;;;9.20;99.90;;;;;;5026327;28;20614;-62
2022/09/19 02:53:19;;;;;;;9.97;5.07;;;9.20;99.90;;;;;;5009549;28;20214;-62
2022/09/19 02:55:50;;;;;;;8.50;5.10;;;9.30;99.90;;;;;;5026947;28;20251;-62
2022/09/19 02:58:18;;;;;;;5.13;4.43;;;9.30;99.90;;;;;;5014471;28;20548;-62
2022/09/19 03:00:53;;;;;;;9.47;5.13;;;9.30;99.90;;;;;;5026958;28;20564;-63
2022/09/19 03:06:13;;;;;;;10.33;5.37;;;9.30;99.90;;;;;;5014472;28;20202;-63
2022/09/19 03:08:39;;;;;;;5.33;4.83;;;9.30;99.90;;;;;;5026309;28;20696;-62
2022/09/19 03:11:14;;;;;;;6.13;5.63;;;9.30;99.90;;;;;;5018542;28;20196;-62
2022/09/19 03:13:41;;;;;;;6.77;4.80;;;9.30;99.90;;;;;;5036543;28;20237;-62
2022/09/19 03:16:23;;;;;;;8.87;5.17;;;9.30;99.90;;;;;;5026455;28;20359;-62
2022/09/19 03:18:54;;;;;;;6.43;4.80;;;9.40;99.90;;;;;;5024687;28;20196;-62
2022/09/19 03:21:22;;;;;;;6.13;4.53;;;9.40;99.90;;;;;;5026642;28;20187;-62
2022/09/19 03:23:50;;;;;;;7.33;5.57;;;9.40;99.90;;;;;;5026610;28;20199;-62
2022/09/19 03:26:21;;;;;;;7.63;6.40;;;9.40;99.90;;;;;;5027090;28;20202;-62
2022/09/19 03:28:47;;;;;;;8.30;4.93;;;9.50;99.90;;;;;;5038393;28;20215;-61
2022/09/19 03:31:13;;;;;;;9.70;5.73;;;9.50;99.90;;;;;;5026696;28;20196;-62
2022/09/19 03:33:39;;;;;;;7.23;6.07;;;9.50;99.90;;;;;;5039681;28;20191;-62
2022/09/19 03:36:08;;;;;;;7.70;5.63;;;9.50;99.90;;;;;;5026549;28;20538;-62
2022/09/19 03:38:35;;;;;;;7.33;5.67;;;9.60;99.90;;;;;;5027103;28;20194;-64
2022/09/19 03:41:01;;;;;;;9.83;6.03;;;9.60;99.90;;;;;;5026587;28;20673;-65
2022/09/19 03:43:27;;;;;;;8.97;6.17;;;9.70;99.90;;;;;;5029075;28;20195;-63
2022/09/19 03:45:53;;;;;;;7.40;6.07;;;9.60;99.90;;;;;;5016475;28;20176;-64
2022/09/19 03:48:19;;;;;;;7.13;5.60;;;9.70;99.90;;;;;;5029675;28;20290;-64
2022/09/19 03:50:44;;;;;;;8.00;6.87;;;9.70;99.90;;;;;;5022558;28;20306;-64
2022/09/19 03:53:11;;;;;;;9.23;6.50;;;9.70;99.90;;;;;;5045258;28;20797;-64
2022/09/19 03:55:37;;;;;;;9.87;6.13;;;9.70;99.90;;;;;;5024950;28;20325;-65
2022/09/19 03:58:04;;;;;;;6.40;5.80;;;9.70;99.90;;;;;;5041972;28;20208;-63
2022/09/19 04:00:30;;;;;;;13.10;7.03;;;9.70;99.90;;;;;;5026125;28;20556;-63
2022/09/19 04:02:56;;;;;;;8.30;6.23;;;9.70;99.90;;;;;;5030169;28;21024;-62
2022/09/19 04:05:22;;;;;;;7.80;5.93;;;9.70;99.90;;;;;;5027371;28;20214;-64
2022/09/19 04:07:48;;;;;;;7.90;6.00;;;9.70;99.90;;;;;;5031651;28;20203;-64
2022/09/19 04:10:14;;;;;;;6.73;6.13;;;9.70;99.90;;;;;;5025636;28;20363;-63
2022/09/19 04:12:40;;;;;;;8.47;6.73;;;9.70;99.90;;;;;;5036143;28;20637;-64
2022/09/19 04:15:07;;;;;;;8.80;5.97;;;9.70;99.90;;;;;;5025605;28;20305;-63
2022/09/19 04:17:32;;;;;;;6.83;6.13;;;9.70;99.90;;;;;;5037022;28;20675;-63
2022/09/19 04:19:58;;;;;;;6.90;6.30;;;9.80;99.90;;;;;;5030496;28;20210;-63
2022/09/19 04:22:23;;;;;;;6.33;5.77;;;9.80;99.90;;;;;;5033302;28;20692;-63
2022/09/19 04:24:49;;;;;;;8.17;7.10;;;9.80;99.90;;;;;;5032102;28;20209;-63
2022/09/19 04:27:14;;;;;;;9.87;6.57;;;9.80;99.90;;;;;;5025570;28;20187;-63
2022/09/19 04:29:40;;;;;;;7.70;6.40;;;9.80;99.90;;;;;;5029878;28;20218;-62
2022/09/19 04:32:06;;;;;;;8.13;5.47;;;9.80;99.90;;;;;;5028333;28;20282;-62
2022/09/19 04:34:33;;;;;;;6.53;5.93;;;9.80;99.90;;;;;;5033888;28;20970;-62
2022/09/19 04:37:02;;;;;;;10.73;6.50;;;9.80;99.90;;;;;;5025776;28;20197;-62
2022/09/19 04:39:28;;;;;;;9.10;6.10;;;9.80;99.90;;;;;;5028405;28;20215;-62
2022/09/19 04:41:53;;;;;;;8.00;6.63;;;9.80;99.90;;;;;;5034683;28;20202;-62
2022/09/19 04:44:28;;;;;;;6.77;5.90;;;9.80;99.90;;;;;;5033114;28;20203;-62
2022/09/19 04:46:54;;;;;;;7.50;6.77;;;9.80;99.90;;;;;;5023624;28;20197;-62
2022/09/19 04:49:19;;;;;;;9.67;6.67;;;9.80;99.90;;;;;;5035260;28;20585;-63
2022/09/19 04:51:45;;;;;;;9.77;6.53;;;9.80;99.90;;;;;;5012280;28;20808;-64
2022/09/19 04:54:11;;;;;;;8.47;6.33;;;9.80;99.90;;;;;;5024758;28;20210;-62
2022/09/19 04:56:37;;;;;;;8.47;6.67;;;9.80;99.90;;;;;;5009479;28;20193;-62
2022/09/19 04:59:03;;;;;;;8.53;6.27;;;9.80;99.90;;;;;;5037964;28;20225;-62
2022/09/19 05:01:30;;;;;;;7.53;6.83;;;9.80;99.90;;;;;;5010470;28;20263;-62
2022/09/19 05:03:56;;;;;;;6.97;6.33;;;9.80;99.90;;;;;;5023600;28;20199;-62
2022/09/19 05:06:22;;;;;;;8.30;6.20;;;9.80;99.90;;;;;;5014859;28;20666;-62
2022/09/19 05:08:47;;;;;;;6.47;5.73;;;9.80;99.90;;;;;;5028411;28;20245;-62
2022/09/19 05:11:13;;;;;;;7.53;6.57;;;9.80;99.90;;;;;;5025154;28;20199;-64
2022/09/19 05:13:40;;;;;;;8.80;6.80;;;9.80;99.90;;;;;;5029834;28;20567;-62
2022/09/19 05:16:07;;;;;;;11.00;6.63;;;9.90;99.90;;;;;;5016219;28;20594;-62
2022/09/19 05:18:37;;;;;;;6.17;5.57;;;9.90;99.90;;;;;;5031930;28;20254;-62
2022/09/19 05:21:05;;;;;;;7.07;6.47;;;9.90;99.90;;;;;;5020253;28;20188;-63
2022/09/19 05:23:31;;;;;;;6.97;6.07;;;10.00;99.90;;;;;;5029914;28;20242;-63
2022/09/19 05:26:02;;;;;;;7.00;5.53;;;10.00;99.90;;;;;;5026872;28;20196;-62
2022/09/19 05:28:28;;;;;;;8.07;5.53;;;10.00;99.90;;;;;;5029764;28;20291;-63
2022/09/19 05:30:55;;;;;;;8.70;6.23;;;10.00;99.90;;;;;;5025577;28;20290;-62
2022/09/19 05:33:26;;;;;;;8.57;4.77;;;10.10;99.90;;;;;;5041818;28;20195;-65
2022/09/19 05:35:55;;;;;;;6.10;5.17;;;10.10;99.90;;;;;;5025092;28;20226;-65
2022/09/19 05:38:24;;;;;;;6.47;5.30;;;10.10;99.90;;;;;;5038368;28;20603;-65
2022/09/19 05:40:54;;;;;;;6.27;4.80;;;10.10;99.90;;;;;;5026618;28;20208;-64
2022/09/19 05:43:20;;;;;;;11.13;8.33;;;10.20;99.90;;;;;;5047908;28;20195;-62
2022/09/19 05:45:46;;;;;;;8.67;4.70;;;10.20;99.90;;;;;;5026680;28;20215;-62
2022/09/19 05:48:12;;;;;;;4.97;4.23;;;10.30;99.90;;;;;;5042472;28;20201;-61
2022/09/19 05:50:38;;;;;;;5.10;4.70;;;10.30;99.90;;;;;;5038947;28;20276;-61
2022/09/19 05:55:47;;;;;;;5.00;4.37;;;10.30;99.90;;;;;;5023100;28;20278;-62
2022/09/19 05:58:15;;;;;;;4.20;3.63;;;10.40;99.90;;;;;;5038382;28;20227;-61
2022/09/19 06:00:41;;;;;;;5.10;4.07;;;10.40;99.90;;;;;;5028926;28;20211;-61
2022/09/19 06:03:09;;;;;;;5.67;4.13;;;10.40;99.90;;;;;;5038380;28;20590;-61
2022/09/19 06:05:39;;;;;;;6.70;4.10;;;10.40;99.90;;;;;;5027645;28;20208;-61
2022/09/19 06:08:05;;;;;;;5.10;3.80;;;10.40;99.90;;;;;;5037488;28;20205;-61
2022/09/19 06:10:34;;;;;;;7.83;3.80;;;10.40;99.90;;;;;;5027983;28;20214;-61
2022/09/19 06:12:59;;;;;;;4.13;3.67;;;10.50;99.90;;;;;;5036258;28;20200;-64
2022/09/19 06:15:25;;;;;;;4.37;3.67;;;10.40;99.90;;;;;;5019803;28;20225;-64
2022/09/19 06:17:54;;;;;;;3.83;3.53;;;10.50;99.90;;;;;;5035974;28;20212;-62
2022/09/19 06:20:20;;;;;;;4.23;3.67;;;10.50;99.90;;;;;;5029598;28;20208;-62
2022/09/19 06:22:46;;;;;;;4.33;3.60;;;10.60;99.90;;;;;;5040716;28;20240;-62
2022/09/19 06:25:13;;;;;;;3.77;3.30;;;10.60;99.90;;;;;;5039519;28;20234;-63
2022/09/19 06:27:39;;;;;;;6.93;3.17;;;10.60;99.90;;;;;;5026066;28;20593;-61
2022/09/19 06:30:05;;;;;;;6.30;3.30;;;10.70;99.90;;;;;;5034420;28;20771;-62
2022/09/19 06:32:31;;;;;;;3.37;3.00;;;10.70;99.90;;;;;;5031205;28;20196;-62
2022/09/19 06:34:56;;;;;;;5.20;2.87;;;10.80;99.90;;;;;;5025540;28;20310;-64
2022/09/19 06:37:22;;;;;;;3.23;2.80;;;10.80;99.90;;;;;;5027784;28;20661;-63
2022/09/19 06:39:47;;;;;;;3.60;3.30;;;10.90;99.90;;;;;;5018005;28;20701;-65
2022/09/19 06:42:13;;;;;;;4.47;3.13;;;10.90;99.90;;;;;;5017209;28;20182;-62
2022/09/19 06:44:38;;;;;;;4.70;2.77;;;11.00;99.90;;;;;;5035186;28;20208;-66
2022/09/19 06:47:06;;;;;;;4.13;2.83;;;11.00;99.90;;;;;;5027229;28;20277;-64
2022/09/19 06:49:31;;;;;;;5.30;3.10;;;11.00;99.90;;;;;;5028883;28;20215;-64
2022/09/19 06:51:57;;;;;;;3.90;3.60;;;11.10;99.90;;;;;;5016278;28;20289;-74
2022/09/19 06:54:23;;;;;;;4.77;3.23;;;11.20;99.90;;;;;;5025198;28;20236;-67
2022/09/19 06:56:49;;;;;;;3.00;2.50;;;11.40;99.90;;;;;;5016688;28;20182;-63
2022/09/19 06:59:16;;;;;;;2.50;2.30;;;11.40;99.90;;;;;;5015952;28;20192;-64
2022/09/19 07:01:42;;;;;;;3.07;2.50;;;11.50;99.90;;;;;;5018742;28;20188;-66
2022/09/19 07:04:07;;;;;;;3.17;2.60;;;11.60;99.90;;;;;;5017468;28;20187;-62
2022/09/19 07:06:36;;;;;;;5.30;3.03;;;11.70;99.90;;;;;;5018664;28;20212;-63
2022/09/19 07:09:03;;;;;;;2.83;2.50;;;11.70;99.90;;;;;;5032477;28;20207;-63
2022/09/19 07:11:29;;;;;;;6.27;2.43;;;11.70;99.90;;;;;;5012140;28;20266;-63
2022/09/19 07:13:54;;;;;;;2.50;2.30;;;11.80;99.90;;;;;;5026653;28;20248;-63
2022/09/19 07:16:20;;;;;;;2.70;2.07;;;11.80;99.90;;;;;;5014554;28;20743;-64
2022/09/19 07:18:45;;;;;;;3.23;1.90;;;11.80;99.90;;;;;;5027108;28;20247;-64
2022/09/19 07:21:11;;;;;;;2.40;2.03;;;11.80;99.90;;;;;;5019675;28;20192;-63
2022/09/19 07:23:37;;;;;;;5.77;2.13;;;11.70;99.90;;;;;;5026923;28;20209;-64
2022/09/19 07:26:03;;;;;;;5.03;3.17;;;11.80;99.90;;;;;;5026734;28;20671;-67
2022/09/19 07:28:30;;;;;;;2.23;2.03;;;11.90;99.90;;;;;;5033777;28;20190;-65
2022/09/19 07:30:58;;;;;;;3.47;2.37;;;11.80;99.90;;;;;;5020220;28;20200;-65
2022/09/19 07:33:28;;;;;;;4.07;2.40;;;11.90;99.90;;;;;;5015943;28;20184;-65
2022/09/19 07:35:54;;;;;;;3.40;1.83;;;11.80;99.90;;;;;;5019277;28;20719;-65
2022/09/19 07:38:22;;;;;;;5.30;2.50;;;11.90;99.90;;;;;;5017170;28;20204;-65
2022/09/19 07:40:48;;;;;;;2.77;1.90;;;12.00;99.90;;;;;;5028016;28;20201;-65
2022/09/19 07:43:15;;;;;;;2.80;2.00;;;12.10;99.90;;;;;;5039490;28;20188;-65
2022/09/19 07:45:50;;;;;;;3.00;2.30;;;12.10;99.90;;;;;;5029034;28;20214;-64
2022/09/19 07:48:17;;;;;;;3.77;2.07;;;12.20;99.90;;;;;;5014819;28;20244;-64
2022/09/19 07:50:43;;;;;;;2.83;1.90;;;12.20;99.90;;;;;;5030480;28;20231;-64
2022/09/19 07:53:14;;;;;;;3.57;2.10;;;12.20;99.90;;;;;;5028048;28;20272;-63
2022/09/19 07:55:42;;;;;;;2.33;2.00;;;12.30;99.90;;;;;;5025337;28;20227;-67
2022/09/19 07:58:10;;;;;;;3.23;1.90;;;12.40;99.90;;;;;;5041128;28;20209;-72
2022/09/19 08:00:37;;;;;;;2.27;1.70;;;12.50;99.90;;;;;;5025568;28;20208;-65
2022/09/19 08:03:10;;;;;;;1.87;1.77;;;12.60;99.90;;;;;;5018453;28;20189;-66
2022/09/19 08:05:37;;;;;;;3.20;1.83;;;12.70;99.90;;;;;;5014590;28;20271;-66
2022/09/19 08:08:04;;;;;;;1.77;1.40;;;12.70;99.90;;;;;;5017404;28;20202;-66
2022/09/19 08:10:30;;;;;;;3.83;1.40;;;12.70;99.90;;;;;;5014580;28;20207;-64
2022/09/19 08:13:04;;;;;;;3.77;1.40;;;12.80;99.90;;;;;;5019150;28;20564;-64
2022/09/19 08:15:30;;;;;;;4.67;1.90;;;12.80;99.90;;;;;;5015226;28;20699;-64
2022/09/19 08:17:57;;;;;;;3.43;1.53;;;12.80;99.90;;;;;;5017706;28;20190;-64
2022/09/19 08:20:24;;;;;;;0.97;0.93;;;12.90;99.90;;;;;;5016530;28;20210;-63
2022/09/19 08:22:54;;;;;;;3.40;1.30;;;13.00;99.90;;;;;;5020330;28;20203;-66
2022/09/19 08:25:20;;;;;;;1.20;0.90;;;13.10;99.90;;;;;;5032624;28;20309;-63
2022/09/19 08:27:45;;;;;;;3.00;1.40;;;13.30;99.90;;;;;;5030560;28;20213;-63
2022/09/19 08:30:11;;;;;;;1.30;1.20;;;13.40;99.90;;;;;;5034196;28;20201;-65
2022/09/19 08:32:36;;;;;;;2.03;1.20;;;13.50;99.90;;;;;;5011753;28;20225;-63
2022/09/19 08:35:02;;;;;;;1.77;1.60;;;13.60;99.90;;;;;;5022551;28;20224;-63
2022/09/19 08:37:29;;;;;;;8.07;1.40;;;13.70;99.90;;;;;;5021122;28;20684;-63
2022/09/19 08:42:58;;;;;;;1.53;1.13;;;13.80;99.90;;;;;;5020736;28;20253;-63
2022/09/19 08:45:52;;;;;;;2.67;0.93;;;13.70;99.90;;;;;;5027854;28;20199;-63
2022/09/19 08:48:28;;;;;;;0.97;0.90;;;13.70;99.90;;;;;;5017058;28;20193;-64
2022/09/19 08:51:00;;;;;;;2.30;1.57;;;13.70;99.90;;;;;;5023811;28;20230;-63
2022/09/19 08:53:33;;;;;;;1.83;0.97;;;13.60;99.90;;;;;;5019029;28;20330;-63
2022/09/19 08:56:00;;;;;;;2.23;1.10;;;13.60;99.90;;;;;;5021635;28;20586;-63
2022/09/19 08:58:28;;;;;;;3.00;1.47;;;13.60;99.90;;;;;;5028903;28;20720;-63
2022/09/19 09:00:54;;;;;;;2.97;1.30;;;13.60;99.90;;;;;;5025468;28;20206;-63
2022/09/19 09:03:37;;;;;;;4.00;2.07;;;13.70;99.90;;;;;;5041326;28;20185;-63
2022/09/19 09:06:22;;;;;;;1.30;1.20;;;13.70;99.90;;;;;;5020111;28;20203;-64
2022/09/19 09:08:53;;;;;;;2.10;1.50;;;13.80;99.90;;;;;;5013496;28;20706;-63
2022/09/19 09:11:49;;;;;;;1.70;1.10;;;14.00;99.90;;;;;;5023418;28;20214;-63
2022/09/19 09:14:26;;;;;;;0.97;0.93;;;14.20;99.90;;;;;;5038881;28;20215;-64
2022/09/19 09:17:19;;;;;;;4.50;1.93;;;14.20;99.90;;;;;;5017813;28;20262;-64
2022/09/19 09:19:50;;;;;;;1.30;1.03;;;14.30;99.90;;;;;;5017889;28;20194;-64
2022/09/19 09:22:26;;;;;;;1.10;0.67;;;14.50;99.90;;;;;;5034534;28;20179;-64
2022/09/19 09:25:00;;;;;;;1.23;1.10;;;14.60;99.90;;;;;;5024567;28;20207;-63
2022/09/19 09:27:33;;;;;;;2.50;0.90;;;14.60;99.90;;;;;;5025475;28;20213;-63
2022/09/19 09:30:09;;;;;;;2.20;1.20;;;14.60;99.90;;;;;;5013254;28;20207;-64
2022/09/19 09:32:40;;;;;;;2.93;1.30;;;14.60;99.90;;;;;;5028022;28;20189;-64
2022/09/19 09:35:14;;;;;;;1.20;1.10;;;14.90;99.90;;;;;;5017687;28;20293;-64
2022/09/19 09:37:44;;;;;;;1.70;0.90;;;15.10;99.90;;;;;;5027590;28;20195;-64
2022/09/19 09:43:08;;;;;;;2.43;0.93;;;15.40;99.90;;;;;;5020448;28;20699;-64
2022/09/19 09:45:45;;;;;;;1.07;0.70;;;15.40;99.90;;;;;;5028148;28;20211;-64
2022/09/19 09:48:21;;;;;;;2.77;0.90;;;15.60;99.90;;;;;;5038748;28;20199;-63
2022/09/19 09:51:18;;;;;;;1.93;1.07;;;15.70;99.90;;;;;;5023575;28;20274;-64
2022/09/19 09:56:14;;;;;;;0.63;0.63;;;15.50;99.90;;;;;;5021966;28;20203;-63
2022/09/19 09:57:13;;;;;;;1.90;1.07;;;15.50;99.90;;;;;;5014892;28;20666;-63
2022/09/19 10:05:49;;;;;;;1.43;0.73;;;15.30;99.90;;;;;;5023108;28;20894;-64
2022/09/19 10:08:27;;;;;;;1.80;0.73;;;14.90;99.90;;;;;;5016886;28;20206;-64
2022/09/19 10:11:09;;;;;;;2.63;0.67;;;14.60;99.90;;;;;;5029817;28;20206;-64
2022/09/19 10:13:40;;;;;;;1.73;0.77;;;14.30;99.90;;;;;;5010767;28;20234;-64
2022/09/19 10:16:07;;;;;;;1.80;0.50;;;14.00;99.90;;;;;;5032961;28;20229;-64
2022/09/19 10:18:46;;;;;;;0.57;0.57;;;13.70;99.90;;;;;;5029435;28;20210;-64
2022/09/19 10:21:13;;;;;;;2.07;0.70;;;13.20;99.90;;;;;;5031739;28;20213;-63
2022/09/19 10:23:45;;;;;;;3.60;1.13;;;12.80;99.90;;;;;;5042113;28;20222;-64
2022/09/19 10:26:15;;;;;;;2.80;1.00;;;12.40;99.90;;;;;;5029051;28;20203;-64
2022/09/19 10:28:53;;;;;;;2.40;0.60;;;12.20;99.90;;;;;;5042485;28;20690;-65
2022/09/19 10:31:37;;;;;;;1.17;0.70;;;12.10;99.90;;;;;;5030577;28;20582;-64
2022/09/19 10:34:14;;;;;;;0.53;0.37;;;11.90;99.90;;;;;;5026693;28;20205;-64
2022/09/19 10:36:46;;;;;;;0.40;0.40;;;11.90;99.90;;;;;;5021224;28;20297;-64
2022/09/19 10:39:14;;;;;;;0.50;0.40;;;11.80;99.90;;;;;;5045542;28;20194;-64
2022/09/19 10:41:41;;;;;;;1.10;0.40;;;11.90;99.90;;;;;;5028185;28;20525;-67
2022/09/19 10:44:22;;;;;;;0.67;0.50;;;11.90;99.90;;;;;;5020243;28;20195;-63
2022/09/19 10:46:54;;;;;;;0.63;0.40;;;11.90;99.90;;;;;;5020294;28;20201;-63
2022/09/19 10:49:25;;;;;;;0.70;0.43;;;11.90;99.90;;;;;;5014322;28;20197;-65
2022/09/19 10:51:53;;;;;;;0.63;0.50;;;11.90;99.90;;;;;;5016518;28;20232;-65
2022/09/19 10:54:35;;;;;;;1.10;0.50;;;12.00;99.90;;;;;;5021155;28;20941;-64
2022/09/19 10:57:05;;;;;;;1.00;1.00;;;12.10;99.90;;;;;;5015338;28;20577;-65
2022/09/19 10:59:36;;;;;;;0.80;0.80;;;12.20;99.90;;;;;;5020710;28;20188;-65
2022/09/19 11:02:18;;;;;;;1.67;0.93;;;12.30;99.90;;;;;;5012937;28;20668;-65
2022/09/19 11:05:03;;;;;;;0.73;0.73;;;12.40;99.90;;;;;;5015886;28;20189;-64
2022/09/19 11:07:44;;;;;;;0.83;0.60;;;12.60;99.90;;;;;;5016897;28;20202;-65
2022/09/19 11:10:28;;;;;;;1.57;0.70;;;12.80;99.90;;;;;;5017208;28;20202;-65
2022/09/19 11:13:13;;;;;;;1.63;0.70;;;13.10;99.90;;;;;;5018645;28;20194;-64
2022/09/19 11:16:12;;;;;;;1.23;0.73;;;13.40;99.90;;;;;;5017631;28;20756;-67
2022/09/19 11:18:50;;;;;;;1.80;0.90;;;13.60;99.90;;;;;;5018615;28;20241;-63
2022/09/19 11:21:28;;;;;;;1.37;1.20;;;13.80;99.90;;;;;;5017244;28;20206;-64
2022/09/19 11:24:23;;;;;;;1.87;1.00;;;14.00;99.90;;;;;;5018346;28;20646;-64
2022/09/19 11:27:01;;;;;;;1.30;1.20;;;14.40;99.90;;;;;;5013670;28;20281;-64
2022/09/19 11:29:34;;;;;;;3.67;1.40;;;14.80;99.90;;;;;;5024618;28;20552;-65
2022/09/19 11:32:34;;;;;;;0.70;0.70;;;14.90;99.90;;;;;;5021889;28;20557;-65
2022/09/19 11:35:25;;;;;;;0.87;0.87;;;15.00;99.90;;;;;;5023327;28;20215;-65
2022/09/19 11:38:15;;;;;;;1.10;0.80;;;15.10;99.90;;;;;;5025781;28;20172;-65
2022/09/19 11:40:56;;;;;;;0.93;0.60;;;15.00;99.90;;;;;;5012135;28;20681;-65
2022/09/19 11:43:52;;;;;;;2.20;0.80;;;14.80;99.90;;;;;;5023485;28;20195;-64
2022/09/19 11:46:49;;;;;;;3.20;0.80;;;14.80;99.90;;;;;;5013444;28;20290;-64
2022/09/19 11:49:36;;;;;;;2.50;1.53;;;15.00;99.90;;;;;;5014248;28;20199;-65
2022/09/19 11:52:33;;;;;;;1.97;0.70;;;15.50;99.90;;;;;;5019317;28;20594;-64
2022/09/19 11:55:37;;;;;;;1.20;1.10;;;16.10;99.90;;;;;;5023131;28;20203;-63
2022/09/19 11:58:38;;;;;;;1.70;1.10;;;16.50;99.90;;;;;;5025329;28;20270;-65
2022/09/19 12:01:29;;;;;;;0.60;0.60;;;16.70;99.90;;;;;;5019282;28;20203;-66
2022/09/19 12:04:27;;;;;;;2.63;0.83;;;16.80;99.90;;;;;;5011893;28;20272;-66
2022/09/19 12:07:31;;;;;;;0.50;0.50;;;16.70;99.90;;;;;;5015979;28;20235;-68
2022/09/19 12:10:20;;;;;;;2.17;0.70;;;16.50;99.90;;;;;;5024054;28;20191;-69
2022/09/19 12:12:54;;;;;;;1.03;0.33;;;15.70;99.90;;;;;;5025060;28;20188;-69
2022/09/19 12:15:25;;;;;;;1.00;0.50;;;14.80;99.90;;;;;;5005527;28;20199;-68
2022/09/19 12:18:02;;;;;;;2.10;0.57;;;14.20;99.90;;;;;;5011200;28;20654;-66
2022/09/19 12:20:46;;;;;;;3.40;0.80;;;13.90;99.90;;;;;;5022057;28;20206;-66
2022/09/19 12:26:41;;;;;;;2.40;0.60;;;12.90;99.90;;;;;;5026583;28;20246;-65
2022/09/19 12:29:17;;;;;;;0.57;0.53;;;12.30;99.90;;;;;;5016905;28;20195;-66
2022/09/19 12:31:47;;;;;;;0.77;0.60;;;12.20;99.90;;;;;;5011826;28;20287;-65
2022/09/19 12:34:36;;;;;;;1.77;0.73;;;12.10;99.90;;;;;;5031394;28;20233;-65
2022/09/19 12:37:15;;;;;;;1.27;0.63;;;12.00;99.90;;;;;;5014320;28;20208;-65
2022/09/19 12:39:47;;;;;;;2.00;0.90;;;12.00;99.90;;;;;;5015677;28;20209;-65
2022/09/19 12:42:31;;;;;;;0.80;0.80;;;12.00;99.90;;;;;;5010559;28;20202;-66
2022/09/19 12:45:11;;;;;;;2.77;1.27;;;11.80;99.90;;;;;;5015231;28;20267;-65
2022/09/19 12:47:59;;;;;;;1.67;1.00;;;11.70;99.90;;;;;;5015876;28;20239;-67
2022/09/19 12:50:47;;;;;;;1.37;1.00;;;11.60;99.90;;;;;;5015436;28;20236;-66
2022/09/19 12:53:25;;;;;;;1.50;1.03;;;11.50;99.90;;;;;;5014647;28;20188;-65
2022/09/19 12:56:16;;;;;;;2.07;1.40;;;11.50;99.90;;;;;;5020156;28;20735;-65
2022/09/19 12:59:11;;;;;;;5.27;1.87;;;11.60;99.90;;;;;;5016391;28;20267;-66
2022/09/19 13:01:43;;;;;;;3.43;1.80;;;11.70;99.90;;;;;;5017284;28;20209;-69
2022/09/19 13:04:25;;;;;;;4.47;1.77;;;11.60;99.90;;;;;;5015535;28;20187;-65
2022/09/19 13:06:53;;;;;;;3.83;1.77;;;11.70;99.90;;;;;;5015497;28;20268;-64
2022/09/19 13:09:32;;;;;;;1.40;1.30;;;11.70;99.90;;;;;;5017700;28;20196;-64
2022/09/19 13:12:13;;;;;;;2.60;1.83;;;11.60;99.90;;;;;;5014736;28;20719;-63
2022/09/19 13:14:56;;;;;;;1.90;1.80;;;11.70;99.90;;;;;;5015763;28;20213;-67
2022/09/19 13:25:49;;;;;;;2.13;1.93;;;11.70;99.90;;;;;;5017153;28;20820;-65
2022/09/19 13:28:19;;;;;;;2.50;1.80;;;11.60;99.90;;;;;;5015965;28;20186;-65
2022/09/19 13:31:13;;;;;;;2.83;1.53;;;11.50;99.90;;;;;;5015007;28;20216;-66
2022/09/19 13:33:49;;;;;;;3.23;1.73;;;11.40;99.90;;;;;;5013786;28;20190;-65
2022/09/19 13:36:40;;;;;;;1.87;1.40;;;11.40;99.90;;;;;;5017252;28;20230;-65
2022/09/19 13:39:42;;;;;;;2.43;1.53;;;11.40;99.90;;;;;;5019391;28;20611;-68
2022/09/19 13:42:12;;;;;;;3.63;1.70;;;11.50;99.90;;;;;;5017201;28;20657;-65
2022/09/19 13:45:08;;;;;;;2.07;1.87;;;11.60;99.90;;;;;;5019088;28;20196;-68
2022/09/19 13:47:40;;;;;;;4.40;1.90;;;11.70;99.90;;;;;;5014942;28;20208;-65
2022/09/19 13:50:24;;;;;;;3.87;1.47;;;11.70;99.90;;;;;;5022954;28;20677;-64
2022/09/19 13:53:00;;;;;;;2.97;1.90;;;11.80;99.90;;;;;;5021052;28;20707;-67
2022/09/19 13:55:35;;;;;;;2.63;1.57;;;11.80;99.90;;;;;;5017410;28;20212;-65